Bicycle Lake Army Air Field
KBYS : now visible

Airfield :











YOU CAN JOIN US ON...

 
LOGIN :

Register | Disclaimer

   EN    FR    IT 

 









Legend :    VFR   Marginal VFR   IFR   Intensive IFR   Very Intensive IFR
Visi :
Ceiling :
>= 8 km
>= 3000ft
5 to 8 km
1000 to 3000 ft
1500m to 5 km
500 to 1000 ft
800 to 1500m
200 to 500 ft
< 800m
< 200 ft
Symbols :   Thunderstorms  Fog  Heavy snow  Heavy precipitations  Wind > 20 kt






- Airport Elevation : 2350 ft


KBYS - Bicycle Lake Army Air Field

CURRENT METAR :
  • 181158Z AUTO 01008KT 10SM CLR 17/M04 A2995 RMK AO2 SLP117 T01691038 10255 20166 53004 FZRANO $

EXPIRED METARs :
  • 181058Z AUTO 03005KT 10SM CLR 18/M04 A2994 RMK AO2 SLP113 T01761044 FZRANO $
  • 180958Z AUTO 07006KT 10SM CLR 19/M03 A2993 RMK AO2 SLP110 T01901032 FZRANO $

Expired Forecast.
KZLA FIR / North America



MET'MAP, your aeronautical weather chart ! - Copyright ORBIFLY December 2007 - Disclaimer

ORBIFLY MET'MAP TEAM :

Programming & Development : Alexandra Zaïnal
Original concept : Baudouin d'Aumeries
Technical & hardware support : Manuel Goepfert
Assistance : Marc-Olivier Méhu

Contact : metmap@orbifly.com




SOURCES & CREDITS :

   NOAA       Earth
Advisory